createdAt,value
2019-05-21T00:01:47.597Z,80.01
2019-05-21T00:04:27.867Z,79.64
2019-05-21T00:06:51.193Z,79.78
2019-05-21T00:09:22.005Z,79.84
2019-05-21T00:11:52.952Z,80.16
2019-05-21T00:14:23.704Z,80.08
2019-05-21T00:16:55.105Z,80.56
2019-05-21T00:19:25.640Z,80.61
2019-05-21T00:21:56.314Z,80.72
2019-05-21T00:24:26.788Z,81.15
2019-05-21T00:26:57.460Z,80.89
2019-05-21T00:30:03.956Z,80.37
2019-05-21T00:33:10.674Z,80.52
2019-05-21T00:36:18.021Z,80.50
2019-05-21T00:39:25.214Z,80.60
2019-05-21T00:42:00.977Z,80.35
2019-05-21T00:44:34.109Z,80.54
2019-05-21T00:47:05.659Z,80.39
2019-05-21T00:49:36.533Z,80.67
2019-05-21T00:52:09.025Z,81.05
2019-05-21T00:54:40.011Z,80.43
2019-05-21T00:57:11.353Z,79.98
2019-05-21T00:59:42.530Z,80.59
2019-05-21T01:02:13.222Z,80.46
2019-05-21T01:04:59.226Z,80.34
2019-05-21T01:07:16.502Z,80.54
2019-05-21T01:09:48.444Z,80.31
2019-05-21T01:12:19.198Z,80.01
2019-05-21T01:14:49.960Z,80.04
2019-05-21T01:17:20.808Z,79.81
2019-05-21T01:19:51.594Z,79.99
2019-05-21T01:22:22.196Z,79.66
2019-05-21T01:24:52.664Z,80.09
2019-05-21T01:27:23.176Z,80.32
2019-05-21T01:29:54.672Z,80.50
2019-05-21T01:32:25.651Z,80.50
2019-05-21T01:34:56.121Z,79.96
2019-05-21T01:37:26.781Z,80.13
2019-05-21T01:39:57.248Z,79.98
2019-05-21T01:42:27.779Z,79.98
2019-05-21T01:44:58.267Z,79.90
2019-05-21T01:47:29.091Z,79.64
2019-05-21T01:49:59.573Z,80.12
2019-05-21T01:52:30.168Z,80.61
2019-05-21T01:55:00.632Z,80.99
2019-05-21T01:57:32.448Z,80.53
2019-05-21T02:00:03.348Z,79.90
2019-05-21T02:02:35.182Z,80.02
2019-05-21T02:05:06.145Z,80.64
2019-05-21T02:07:38.257Z,80.49
2019-05-21T02:10:10.061Z,80.29
2019-05-21T02:12:40.890Z,80.44
2019-05-21T02:15:12.087Z,79.69
2019-05-21T02:17:43.891Z,80.29
2019-05-21T02:20:15.093Z,80.11
2019-05-21T02:22:46.156Z,79.87
2019-05-21T02:25:17.628Z,80.19
2019-05-21T02:27:48.410Z,80.16
2019-05-21T02:30:19.451Z,80.31
2019-05-21T02:32:50.195Z,80.05
2019-05-21T02:35:21.090Z,80.51
2019-05-21T02:37:51.876Z,80.54
2019-05-21T02:40:23.567Z,80.13
2019-05-21T02:42:54.767Z,79.85
2019-05-21T02:45:25.658Z,80.37
2019-05-21T02:47:56.466Z,80.28
2019-05-21T02:50:27.328Z,80.73
2019-05-21T02:52:58.027Z,80.47
2019-05-21T02:55:28.803Z,80.33
2019-05-21T02:57:59.811Z,79.85
2019-05-21T03:00:55.791Z,80.38
2019-05-21T03:03:28.529Z,80.17
2019-05-21T03:06:13.066Z,80.00
2019-05-21T03:08:31.232Z,80.17
2019-05-21T03:11:01.727Z,79.97
2019-05-21T03:13:32.335Z,79.67
2019-05-21T03:16:02.902Z,80.67
2019-05-21T03:18:33.422Z,79.98
2019-05-21T03:21:03.885Z,80.56
2019-05-21T03:23:34.867Z,80.17
2019-05-21T03:26:05.664Z,80.32
2019-05-21T03:28:36.466Z,80.36
2019-05-21T03:31:07.273Z,80.02
2019-05-21T03:33:38.276Z,80.46
2019-05-21T03:36:09.147Z,80.24
2019-05-21T03:38:39.918Z,80.68
2019-05-21T03:41:10.719Z,80.55
2019-05-21T03:43:41.514Z,80.02
2019-05-21T03:46:12.259Z,79.65
2019-05-21T03:48:43.650Z,80.15
2019-05-21T03:51:14.436Z,80.40
2019-05-21T03:53:45.243Z,80.06
2019-05-21T03:56:16.052Z,80.52
2019-05-21T03:58:47.060Z,80.35
2019-05-21T04:01:17.922Z,80.41
2019-05-21T04:03:48.688Z,80.46
2019-05-21T04:06:19.591Z,80.40
2019-05-21T04:08:50.557Z,79.77
2019-05-21T04:11:21.343Z,79.43
2019-05-21T04:13:53.319Z,79.07
2019-05-21T04:16:59.142Z,79.35
2019-05-21T04:19:33.497Z,79.20
2019-05-21T04:22:05.922Z,79.42
2019-05-21T04:24:37.019Z,79.27
2019-05-21T04:27:07.658Z,79.72
2019-05-21T04:29:38.473Z,79.07
2019-05-21T04:32:08.933Z,80.08
2019-05-21T04:34:39.699Z,79.83
2019-05-21T04:37:11.882Z,80.16
2019-05-21T04:39:42.405Z,79.58
2019-05-21T04:42:12.854Z,79.94
2019-05-21T04:44:43.469Z,79.51
2019-05-21T04:47:13.935Z,79.15
2019-05-21T04:49:45.068Z,79.44
2019-05-21T04:52:15.542Z,78.75
2019-05-21T04:54:46.377Z,79.15
2019-05-21T04:57:17.180Z,79.21
2019-05-21T04:59:47.946Z,78.64
2019-05-21T05:02:18.795Z,79.71
2019-05-21T05:04:49.689Z,79.12
2019-05-21T05:07:28.247Z,78.89
2019-05-21T05:09:53.000Z,79.26
2019-05-21T05:12:23.699Z,78.50
2019-05-21T05:14:54.476Z,79.34
2019-05-21T05:17:25.368Z,79.09
2019-05-21T05:19:56.278Z,79.31
2019-05-21T05:22:27.109Z,78.79
2019-05-21T05:24:57.813Z,78.83
2019-05-21T05:27:28.811Z,79.28
2019-05-21T05:29:59.645Z,78.91
2019-05-21T05:32:30.489Z,78.86
2019-05-21T05:35:01.325Z,79.07
2019-05-21T05:37:43.377Z,79.20
2019-05-21T05:40:04.568Z,78.38
2019-05-21T05:42:35.072Z,78.51
2019-05-21T05:45:06.378Z,78.43
2019-05-21T05:47:36.972Z,78.64
2019-05-21T05:50:09.992Z,78.49
2019-05-21T05:52:40.466Z,78.45
2019-05-21T05:55:11.393Z,78.57
2019-05-21T05:57:41.903Z,78.43
2019-05-21T06:00:14.168Z,78.83
2019-05-21T06:02:44.692Z,78.10
2019-05-21T06:05:16.567Z,78.37
2019-05-21T06:07:59.405Z,78.47
2019-05-21T06:10:19.429Z,78.53
2019-05-21T06:12:50.964Z,79.13
2019-05-21T06:15:21.820Z,78.60
2019-05-21T06:17:52.615Z,78.92
2019-05-21T06:20:23.625Z,78.44
2019-05-21T06:22:54.521Z,78.08
2019-05-21T06:25:25.633Z,78.42
2019-05-21T06:27:56.470Z,78.88
2019-05-21T06:30:27.194Z,79.07
2019-05-21T06:32:58.033Z,78.29
2019-05-21T06:35:28.779Z,78.22
2019-05-21T06:38:16.115Z,78.28
2019-05-21T06:40:31.809Z,78.08
2019-05-21T06:43:02.710Z,78.74
2019-05-21T06:45:33.582Z,78.03
2019-05-21T06:48:04.555Z,77.87
2019-05-21T06:50:37.618Z,77.94
2019-05-21T06:53:07.854Z,77.71
2019-05-21T06:55:38.752Z,77.70
2019-05-21T06:58:09.814Z,77.50
2019-05-21T07:00:40.696Z,77.63
2019-05-21T07:03:11.964Z,77.38
2019-05-21T07:05:57.686Z,77.52
2019-05-21T07:08:15.309Z,77.86
2019-05-21T07:10:46.180Z,77.91
2019-05-21T07:13:17.118Z,77.97
2019-05-21T07:15:47.894Z,77.61
2019-05-21T07:18:18.648Z,77.41
2019-05-21T07:20:49.255Z,77.82
2019-05-21T07:23:20.016Z,77.12
2019-05-21T07:25:50.924Z,77.14
2019-05-21T07:28:21.753Z,77.41
2019-05-21T07:30:52.422Z,78.04
2019-05-21T07:33:23.509Z,79.11
2019-05-21T07:35:54.171Z,78.62
2019-05-21T07:38:25.042Z,78.42
2019-05-21T07:40:56.260Z,78.45
2019-05-21T07:43:27.125Z,78.11
2019-05-21T07:45:58.009Z,78.54
2019-05-21T07:48:28.865Z,78.70
2019-05-21T07:50:59.876Z,79.05
2019-05-21T07:53:30.559Z,78.75
2019-05-21T07:56:01.137Z,79.34
2019-05-21T07:58:31.613Z,79.49
2019-05-21T08:01:02.242Z,79.02
2019-05-21T08:03:32.786Z,78.64
2019-05-21T08:06:03.291Z,79.13
2019-05-21T08:08:33.757Z,79.20
2019-05-21T08:11:04.707Z,79.85
2019-05-21T08:13:35.789Z,79.57
2019-05-21T08:16:06.609Z,79.46
2019-05-21T08:18:37.296Z,79.91
2019-05-21T08:21:08.131Z,79.66
2019-05-21T08:23:39.097Z,80.00
2019-05-21T08:26:09.806Z,79.67
2019-05-21T08:28:40.533Z,80.15
2019-05-21T08:31:11.634Z,81.03
2019-05-21T08:33:42.408Z,80.51
2019-05-21T08:36:13.385Z,79.99
2019-05-21T08:38:44.197Z,79.81
2019-05-21T08:41:15.457Z,80.13
2019-05-21T08:43:46.264Z,80.54
2019-05-21T08:46:17.146Z,80.48
2019-05-21T08:48:47.940Z,80.85
2019-05-21T08:51:18.709Z,80.78
2019-05-21T08:53:49.583Z,80.80
2019-05-21T08:56:20.055Z,80.83
2019-05-21T08:58:50.542Z,81.35
2019-05-21T09:01:21.135Z,81.08
2019-05-21T09:03:51.640Z,81.32
2019-05-21T09:06:22.128Z,81.93
2019-05-21T09:08:52.632Z,81.50
2019-05-21T09:11:23.104Z,81.33
2019-05-21T09:13:53.981Z,81.03
2019-05-21T09:16:24.892Z,80.89
2019-05-21T09:18:55.728Z,80.95
2019-05-21T09:21:26.616Z,81.36
2019-05-21T09:23:57.403Z,80.69
2019-05-21T09:26:28.372Z,81.14
2019-05-21T09:28:59.064Z,81.24
2019-05-21T09:31:29.933Z,81.27
2019-05-21T09:34:00.847Z,81.06
2019-05-21T09:36:31.716Z,80.75
2019-05-21T09:39:02.422Z,81.07
2019-05-21T09:41:34.933Z,82.03
2019-05-21T09:44:06.092Z,81.63
2019-05-21T09:46:37.092Z,81.18
2019-05-21T09:49:07.805Z,81.78
2019-05-21T09:51:38.574Z,81.71
2019-05-21T09:54:09.477Z,81.26
2019-05-21T09:56:40.280Z,81.59
2019-05-21T09:59:24.928Z,81.55
2019-05-21T10:01:58.131Z,81.71
2019-05-21T10:04:29.014Z,81.90
2019-05-21T10:07:00.062Z,81.86
2019-05-21T10:09:30.886Z,81.96
2019-05-21T10:12:01.628Z,81.60
2019-05-21T10:14:34.403Z,81.21
2019-05-21T10:17:05.571Z,80.55
2019-05-21T10:19:36.426Z,81.30
2019-05-21T10:22:07.412Z,81.34
2019-05-21T10:24:38.252Z,81.80
2019-05-21T10:27:09.169Z,81.22
2019-05-21T10:29:40.017Z,81.53
2019-05-21T10:32:10.886Z,81.18
2019-05-21T10:34:41.599Z,81.25
2019-05-21T10:37:12.548Z,81.06
2019-05-21T10:39:43.452Z,81.41
2019-05-21T10:42:14.222Z,81.07
2019-05-21T10:44:45.011Z,81.75
2019-05-21T10:47:16.551Z,81.47
2019-05-21T10:49:47.456Z,80.82
2019-05-21T10:52:18.246Z,81.01
2019-05-21T10:54:48.715Z,81.28
2019-05-21T10:57:19.299Z,81.87
2019-05-21T10:59:49.792Z,81.41
2019-05-21T11:02:29.598Z,81.38
2019-05-21T11:05:10.061Z,81.73
2019-05-21T11:07:40.837Z,81.57
2019-05-21T11:10:12.238Z,81.81
2019-05-21T11:12:42.984Z,81.97
2019-05-21T11:15:14.262Z,82.53
2019-05-21T11:17:53.747Z,82.18
2019-05-21T11:20:17.543Z,81.78
2019-05-21T11:22:48.373Z,82.29
2019-05-21T11:25:19.073Z,81.97
2019-05-21T11:27:49.994Z,81.70
2019-05-21T11:30:20.789Z,81.86
2019-05-21T11:32:51.585Z,81.93
2019-05-21T11:35:22.685Z,82.23
2019-05-21T11:37:53.631Z,81.34
2019-05-21T11:40:27.029Z,80.99
2019-05-21T11:42:57.910Z,80.42
2019-05-21T11:45:32.827Z,80.68
2019-05-21T11:48:02.244Z,80.72
2019-05-21T11:50:33.116Z,81.08
2019-05-21T11:53:04.931Z,80.99
2019-05-21T11:55:35.811Z,80.73
2019-05-21T11:58:06.640Z,80.51
2019-05-21T12:00:37.606Z,80.62
2019-05-21T12:03:08.457Z,81.56
2019-05-21T12:05:39.374Z,80.44
2019-05-21T12:08:10.057Z,79.51
2019-05-21T12:10:40.755Z,79.34
2019-05-21T12:13:11.745Z,79.00
2019-05-21T12:15:42.563Z,78.90
2019-05-21T12:18:13.447Z,79.41
2019-05-21T12:20:45.243Z,79.86
2019-05-21T12:23:15.944Z,79.31
2019-05-21T12:25:46.764Z,79.79
2019-05-21T12:28:17.519Z,80.08
2019-05-21T12:30:48.471Z,80.57
2019-05-21T12:33:19.174Z,80.64
2019-05-21T12:35:50.632Z,80.86
2019-05-21T12:38:21.431Z,81.36
2019-05-21T12:40:52.294Z,81.07
2019-05-21T12:43:23.157Z,80.63
2019-05-21T12:45:54.116Z,80.72
2019-05-21T12:48:24.971Z,81.14
2019-05-21T12:50:55.974Z,80.32
2019-05-21T12:53:26.748Z,80.29
2019-05-21T12:55:57.518Z,79.66
2019-05-21T12:58:28.476Z,80.12
2019-05-21T13:00:58.966Z,79.37
2019-05-21T13:03:29.470Z,79.58
2019-05-21T13:05:59.945Z,80.19
2019-05-21T13:08:30.456Z,79.46
2019-05-21T13:11:00.933Z,79.13
2019-05-21T13:13:31.536Z,78.18
2019-05-21T13:16:02.042Z,77.95
2019-05-21T13:18:32.565Z,77.50
2019-05-21T13:21:03.064Z,76.86
2019-05-21T13:23:33.560Z,77.16
2019-05-21T13:26:08.009Z,77.62
2019-05-21T13:28:37.289Z,78.13
2019-05-21T13:31:08.100Z,77.80
2019-05-21T13:33:38.913Z,78.07
2019-05-21T13:36:09.683Z,78.49
2019-05-21T13:38:40.489Z,77.44
2019-05-21T13:41:11.814Z,77.85
2019-05-21T13:43:42.930Z,77.21
2019-05-21T13:46:13.692Z,78.27
2019-05-21T13:48:46.955Z,78.13
2019-05-21T13:51:17.279Z,78.44
2019-05-21T13:53:48.009Z,77.85
2019-05-21T13:56:18.917Z,77.55
2019-05-21T13:58:49.893Z,78.45
2019-05-21T14:01:38.856Z,78.38
2019-05-21T14:03:54.248Z,79.33
2019-05-21T14:06:24.996Z,78.58
2019-05-21T14:08:55.757Z,79.37
2019-05-21T14:11:26.770Z,79.52
2019-05-21T14:13:57.633Z,79.28
2019-05-21T14:16:29.597Z,78.68
2019-05-21T14:19:00.405Z,77.70
2019-05-21T14:21:31.202Z,77.61
2019-05-21T14:24:02.037Z,77.22
2019-05-21T14:26:32.940Z,78.06
2019-05-21T14:29:03.607Z,78.52
2019-05-21T14:31:34.416Z,78.68
2019-05-21T14:34:05.449Z,78.78
2019-05-21T14:36:36.318Z,78.90
2019-05-21T14:39:12.364Z,78.75
2019-05-21T14:41:43.223Z,79.34
2019-05-21T14:44:14.020Z,79.08
2019-05-21T14:46:44.925Z,79.11
2019-05-21T14:49:15.695Z,78.84
2019-05-21T14:51:47.345Z,78.46
2019-05-21T14:54:26.711Z,78.87
2019-05-21T14:56:50.830Z,78.08
2019-05-21T14:59:21.501Z,78.36
2019-05-21T15:01:51.985Z,78.26
2019-05-21T15:04:22.752Z,78.33
2019-05-21T15:06:53.536Z,78.62
2019-05-21T15:09:24.042Z,78.59
2019-05-21T15:11:54.543Z,78.36
2019-05-21T15:14:25.080Z,77.85
2019-05-21T15:16:55.645Z,77.79
2019-05-21T15:19:27.135Z,78.01
2019-05-21T15:21:57.891Z,78.26
2019-05-21T15:24:28.366Z,78.36
2019-05-21T15:26:58.893Z,77.98
2019-05-21T15:29:29.384Z,78.22
2019-05-21T15:31:59.901Z,78.37
2019-05-21T15:34:30.384Z,78.13
2019-05-21T15:37:01.041Z,77.50
2019-05-21T15:39:31.629Z,78.55
2019-05-21T15:42:04.078Z,78.36
2019-05-21T15:44:35.151Z,78.54
2019-05-21T15:47:07.799Z,78.53
2019-05-21T15:49:38.757Z,77.90
2019-05-21T15:52:09.641Z,78.21
2019-05-21T15:54:40.660Z,77.59
2019-05-21T15:57:13.712Z,78.15
2019-05-21T15:59:44.855Z,79.10
2019-05-21T16:02:15.973Z,79.07
2019-05-21T16:04:46.823Z,79.21
2019-05-21T16:07:19.783Z,78.39
2019-05-21T16:09:50.925Z,79.63
2019-05-21T16:12:22.897Z,79.56
2019-05-21T16:14:54.173Z,79.76
2019-05-21T16:17:25.121Z,79.34
2019-05-21T16:20:02.089Z,78.17
2019-05-21T16:22:33.689Z,79.04
2019-05-21T16:25:05.076Z,79.51
2019-05-21T16:27:35.751Z,79.77
2019-05-21T16:30:08.053Z,79.71
2019-05-21T16:32:41.010Z,79.86
2019-05-21T16:35:12.344Z,79.99
2019-05-21T16:37:43.254Z,80.26
2019-05-21T16:40:14.038Z,80.43
2019-05-21T16:42:44.568Z,80.17
2019-05-21T16:45:15.427Z,78.88
2019-05-21T16:47:46.782Z,79.53
2019-05-21T16:50:17.798Z,79.03
2019-05-21T16:52:48.489Z,79.92
2019-05-21T16:55:18.970Z,78.80
2019-05-21T16:57:49.497Z,79.40
2019-05-21T17:00:22.088Z,79.71
2019-05-21T17:02:52.578Z,79.64
2019-05-21T17:05:24.106Z,79.72
2019-05-21T17:07:54.573Z,79.88
2019-05-21T17:10:25.340Z,79.62
2019-05-21T17:12:55.847Z,79.73
2019-05-21T17:15:26.453Z,79.85
2019-05-21T17:17:56.933Z,80.09
2019-05-21T17:20:27.873Z,79.98
2019-05-21T17:22:58.617Z,80.06
2019-05-21T17:25:29.493Z,79.94
2019-05-21T17:28:00.202Z,79.96
2019-05-21T17:30:32.290Z,80.19
2019-05-21T17:33:04.126Z,80.40
2019-05-21T17:35:35.363Z,80.56
2019-05-21T17:38:06.491Z,80.33
2019-05-21T17:40:37.207Z,80.37
2019-05-21T17:43:07.967Z,80.18
2019-05-21T17:45:38.729Z,79.90
2019-05-21T17:48:09.640Z,80.23
2019-05-21T17:50:40.373Z,80.35
2019-05-21T17:53:11.466Z,80.71
2019-05-21T17:55:42.558Z,80.18
2019-05-21T17:58:13.661Z,80.14
2019-05-21T18:00:50.681Z,80.61
2019-05-21T18:03:21.631Z,80.35
2019-05-21T18:05:52.636Z,80.26
2019-05-21T18:08:23.772Z,80.64
2019-05-21T18:10:54.859Z,80.66
2019-05-21T18:13:25.932Z,80.63
2019-05-21T18:15:57.706Z,80.66
2019-05-21T18:18:28.967Z,80.55
2019-05-21T18:21:00.038Z,80.11
2019-05-21T18:23:31.215Z,80.19
2019-05-21T18:26:02.281Z,80.71
2019-05-21T18:28:33.197Z,80.81
2019-05-21T18:31:05.332Z,80.89
2019-05-21T18:33:36.345Z,80.59
2019-05-21T18:36:07.460Z,80.53
2019-05-21T18:38:38.778Z,80.54
2019-05-21T18:41:09.793Z,80.56
2019-05-21T18:43:40.532Z,81.07
2019-05-21T18:46:11.451Z,81.06
2019-05-21T18:48:42.250Z,81.15
2019-05-21T18:51:13.792Z,81.44
2019-05-21T18:53:44.628Z,81.12
2019-05-21T18:56:16.672Z,81.23
2019-05-21T18:58:47.189Z,81.28
2019-05-21T19:01:17.762Z,81.00
2019-05-21T19:03:48.284Z,81.31
2019-05-21T19:06:18.885Z,81.55
2019-05-21T19:08:49.509Z,81.39
2019-05-21T19:11:20.254Z,81.54
2019-05-21T19:13:50.817Z,81.71
2019-05-21T19:16:21.341Z,81.71
2019-05-21T19:18:51.844Z,81.45
2019-05-21T19:21:22.366Z,81.17
2019-05-21T19:23:53.200Z,81.48
2019-05-21T19:26:24.972Z,81.32
2019-05-21T19:28:55.962Z,80.62
2019-05-21T19:31:27.365Z,80.79
2019-05-21T19:33:58.594Z,81.34
2019-05-21T19:36:29.740Z,81.02
2019-05-21T19:39:00.562Z,81.53
2019-05-21T19:41:33.046Z,81.72
2019-05-21T19:44:04.262Z,81.88
2019-05-21T19:46:34.997Z,81.64
2019-05-21T19:49:05.971Z,81.65
2019-05-21T19:51:36.797Z,81.74
2019-05-21T19:54:07.873Z,81.74
2019-05-21T19:56:39.494Z,81.76
2019-05-21T19:59:10.361Z,81.71
2019-05-21T20:01:41.651Z,81.32
2019-05-21T20:04:14.338Z,81.78
2019-05-21T20:06:45.400Z,81.85
2019-05-21T20:09:17.575Z,81.97
2019-05-21T20:11:48.413Z,82.07
2019-05-21T20:14:19.705Z,81.94
2019-05-21T20:16:51.009Z,81.71
2019-05-21T20:19:23.120Z,81.59
2019-05-21T20:21:54.388Z,81.81
2019-05-21T20:24:25.548Z,81.79
2019-05-21T20:26:56.495Z,81.75
2019-05-21T20:29:27.542Z,82.32
2019-05-21T20:31:58.612Z,82.32
2019-05-21T20:34:29.801Z,82.16
2019-05-21T20:37:00.657Z,82.05
2019-05-21T20:39:33.213Z,81.92
2019-05-21T20:42:05.658Z,81.74
2019-05-21T20:44:36.334Z,81.37
2019-05-21T20:47:09.280Z,81.58
2019-05-21T20:49:39.751Z,81.49
2019-05-21T20:52:18.586Z,81.56
2019-05-21T20:54:46.440Z,81.63
2019-05-21T20:57:17.718Z,81.50
2019-05-21T20:59:48.334Z,81.68
2019-05-21T21:02:18.823Z,82.00
2019-05-21T21:04:49.910Z,82.59
2019-05-21T21:07:20.814Z,83.37
2019-05-21T21:09:51.965Z,83.36
2019-05-21T21:12:23.378Z,83.09
2019-05-21T21:14:54.747Z,83.12
2019-05-21T21:17:26.383Z,82.85
2019-05-21T21:19:57.247Z,82.57
2019-05-21T21:22:28.109Z,82.53
2019-05-21T21:24:59.033Z,82.44
2019-05-21T21:27:31.206Z,82.48
2019-05-21T21:30:02.157Z,82.52
2019-05-21T21:32:34.472Z,82.62
2019-05-21T21:35:05.825Z,82.62
2019-05-21T21:37:36.622Z,82.50
2019-05-21T21:40:12.089Z,82.48
2019-05-21T21:42:43.901Z,82.29
2019-05-21T21:45:14.967Z,82.35
2019-05-21T21:47:45.822Z,82.63
2019-05-21T21:50:18.760Z,82.22
2019-05-21T21:52:50.096Z,82.20
2019-05-21T21:55:20.858Z,81.97
2019-05-21T21:57:51.585Z,82.11
2019-05-21T22:01:20.055Z,82.56
2019-05-21T22:03:51.592Z,82.20
2019-05-21T22:06:23.807Z,82.03
2019-05-21T22:08:54.742Z,82.27
2019-05-21T22:11:26.353Z,82.52
2019-05-21T22:13:57.209Z,82.24
2019-05-21T22:16:28.410Z,82.81
2019-05-21T22:18:59.253Z,82.71
2019-05-21T22:21:30.002Z,82.54
2019-05-21T22:24:00.521Z,82.72
2019-05-21T22:26:31.297Z,82.71
2019-05-21T22:29:01.773Z,82.24
2019-05-21T22:31:32.262Z,82.57
2019-05-21T22:34:02.813Z,82.80
2019-05-21T22:36:33.492Z,82.72
2019-05-21T22:39:06.844Z,82.74
2019-05-21T22:41:37.347Z,82.80
2019-05-21T22:44:08.996Z,82.81
2019-05-21T22:46:40.045Z,82.64
2019-05-21T22:49:11.053Z,82.42
2019-05-21T22:51:41.808Z,82.48
2019-05-21T22:54:12.633Z,82.87
2019-05-21T22:56:43.698Z,83.16
2019-05-21T22:59:14.705Z,82.68
2019-05-21T23:01:45.612Z,82.23
2019-05-21T23:04:16.563Z,82.13
2019-05-21T23:06:49.039Z,81.91
2019-05-21T23:09:19.995Z,81.65
2019-05-21T23:11:50.895Z,81.37
2019-05-21T23:14:22.064Z,81.91
2019-05-21T23:16:54.254Z,82.15
2019-05-21T23:19:28.088Z,82.20
2019-05-21T23:22:03.420Z,81.82
2019-05-21T23:24:34.675Z,81.50
2019-05-21T23:27:07.137Z,81.84
2019-05-21T23:29:39.252Z,81.67
2019-05-21T23:32:10.255Z,82.06
2019-05-21T23:34:40.907Z,81.88
2019-05-21T23:37:18.019Z,81.69
2019-05-21T23:39:50.192Z,81.59
2019-05-21T23:42:28.996Z,81.57
2019-05-21T23:44:53.274Z,81.92
2019-05-21T23:47:24.146Z,82.55
2019-05-21T23:49:54.916Z,83.02
2019-05-21T23:52:26.475Z,82.96
2019-05-21T23:54:56.944Z,82.40
2019-05-21T23:57:32.724Z,81.77
